createdAt,value
2018-05-19T00:01:39.046Z,90.70
2018-05-19T00:04:06.192Z,90.60
2018-05-19T00:06:32.604Z,90.60
2018-05-19T00:08:59.008Z,90.60
2018-05-19T00:11:25.401Z,90.60
2018-05-19T00:13:52.554Z,90.40
2018-05-19T00:16:19.687Z,90.60
2018-05-19T00:18:46.820Z,90.50
2018-05-19T00:21:14.694Z,90.80
2018-05-19T00:23:41.855Z,90.50
2018-05-19T00:26:08.991Z,90.40
2018-05-19T00:28:35.384Z,90.40
2018-05-19T00:31:01.896Z,90.60
2018-05-19T00:33:28.304Z,90.60
2018-05-19T00:35:55.448Z,90.60
2018-05-19T00:38:21.849Z,90.60
2018-05-19T00:40:48.254Z,90.40
2018-05-19T00:43:14.731Z,90.60
2018-05-19T00:45:41.149Z,90.80
2018-05-19T00:48:07.565Z,90.90
2018-05-19T00:50:33.981Z,90.70
2018-05-19T00:53:00.381Z,90.90
2018-05-19T00:55:27.512Z,90.90
2018-05-19T00:57:55.421Z,90.70
2018-05-19T01:00:21.855Z,90.70
2018-05-19T01:02:48.274Z,90.70
2018-05-19T01:05:28.787Z,90.80
2018-05-19T01:07:55.213Z,90.80
2018-05-19T01:10:35.033Z,90.60
2018-05-19T01:13:01.488Z,90.70
2018-05-19T01:15:27.897Z,91.00
2018-05-19T01:17:54.291Z,90.80
2018-05-19T01:20:20.705Z,91.00
2018-05-19T01:22:47.105Z,91.20
2018-05-19T01:25:13.524Z,90.80
2018-05-19T01:27:39.914Z,91.00
2018-05-19T01:30:06.345Z,90.90
2018-05-19T01:32:32.754Z,90.60
2018-05-19T01:34:59.218Z,90.50
2018-05-19T01:37:25.628Z,90.60
2018-05-19T01:39:52.026Z,90.50
2018-05-19T01:42:18.422Z,90.50
2018-05-19T01:44:44.903Z,90.50
2018-05-19T01:47:11.311Z,90.20
2018-05-19T01:49:38.453Z,90.60
2018-05-19T01:52:05.599Z,90.70
2018-05-19T01:54:32.016Z,90.70
2018-05-19T01:56:58.418Z,90.40
2018-05-19T01:59:24.811Z,90.40
2018-05-19T02:01:51.970Z,91.00
2018-05-19T02:04:18.374Z,91.00
2018-05-19T02:06:45.523Z,91.50
2018-05-19T02:09:12.663Z,91.20
2018-05-19T02:11:39.800Z,91.30
2018-05-19T02:14:06.200Z,91.40
2018-05-19T02:16:32.615Z,91.40
2018-05-19T02:18:59.011Z,91.40
2018-05-19T02:21:25.400Z,91.60
2018-05-19T02:23:51.795Z,91.70
2018-05-19T02:26:18.933Z,91.80
2018-05-19T02:28:46.090Z,91.40
2018-05-19T02:31:13.245Z,91.80
2018-05-19T02:33:40.450Z,91.40
2018-05-19T02:36:06.965Z,91.40
2018-05-19T02:38:33.466Z,90.90
2018-05-19T02:40:59.871Z,90.90
2018-05-19T02:43:26.289Z,90.90
2018-05-19T02:45:52.672Z,90.80
2018-05-19T02:48:19.081Z,91.00
2018-05-19T02:50:46.238Z,91.00
2018-05-19T02:53:13.442Z,91.00
2018-05-19T02:55:39.851Z,91.00
2018-05-19T02:58:06.301Z,90.90
2018-05-19T03:00:32.727Z,90.80
2018-05-19T03:02:59.134Z,90.90
2018-05-19T03:05:25.546Z,91.20
2018-05-19T03:07:51.953Z,91.00
2018-05-19T03:10:18.384Z,91.00
2018-05-19T03:12:44.799Z,91.00
2018-05-19T03:15:11.210Z,91.30
2018-05-19T03:17:37.628Z,90.90
2018-05-19T03:20:04.843Z,91.30
2018-05-19T03:22:31.228Z,91.30
2018-05-19T03:24:57.639Z,91.10
2018-05-19T03:27:24.805Z,90.90
2018-05-19T03:29:51.240Z,90.90
2018-05-19T03:32:17.636Z,90.50
2018-05-19T03:34:44.053Z,90.60
2018-05-19T03:37:10.464Z,90.50
2018-05-19T03:39:39.023Z,90.50
2018-05-19T03:42:05.507Z,90.80
2018-05-19T03:44:33.425Z,91.00
2018-05-19T03:46:59.804Z,91.00
2018-05-19T03:49:26.283Z,90.80
2018-05-19T03:51:52.688Z,90.80
2018-05-19T03:54:19.264Z,91.00
2018-05-19T03:56:45.720Z,90.90
2018-05-19T03:59:24.391Z,91.00
2018-05-19T04:02:03.970Z,91.30
2018-05-19T04:04:30.382Z,91.30
2018-05-19T04:06:56.797Z,91.10
2018-05-19T04:09:23.943Z,91.40
2018-05-19T04:11:51.106Z,91.70
2018-05-19T04:14:18.247Z,91.40
2018-05-19T04:16:45.403Z,91.50
2018-05-19T04:19:11.815Z,91.50
2018-05-19T04:34:42.156Z,92.10
2018-05-19T04:37:08.570Z,91.80
2018-05-19T04:39:35.723Z,91.60
2018-05-19T04:42:02.932Z,91.70
2018-05-19T04:44:29.533Z,91.60
2018-05-19T04:46:55.942Z,91.60
2018-05-19T04:49:23.102Z,91.80
2018-05-19T04:51:49.569Z,91.80
2018-05-19T04:54:16.007Z,91.90
2018-05-19T04:56:42.446Z,91.90
2018-05-19T04:59:08.847Z,91.80
2018-05-19T05:01:35.316Z,91.80
2018-05-19T05:04:01.801Z,91.80
2018-05-19T05:06:28.152Z,92.00
2018-05-19T05:08:54.580Z,92.10
2018-05-19T05:11:20.986Z,92.10
2018-05-19T05:13:48.227Z,92.20
2018-05-19T05:16:14.622Z,92.20
2018-05-19T05:18:41.060Z,92.20
2018-05-19T05:21:07.452Z,92.20
2018-05-19T05:23:34.586Z,92.20
2018-05-19T05:26:01.727Z,92.10
2018-05-19T05:28:28.120Z,92.00
2018-05-19T05:30:54.541Z,91.90
2018-05-19T05:33:20.926Z,92.20
2018-05-19T05:35:48.785Z,92.20
2018-05-19T05:38:15.938Z,92.30
2018-05-19T05:40:43.067Z,92.30
2018-05-19T05:43:09.621Z,91.90
2018-05-19T05:45:37.404Z,92.20
2018-05-19T05:48:04.542Z,92.10
2018-05-19T05:50:30.937Z,92.10
2018-05-19T05:52:57.380Z,92.10
2018-05-19T05:55:23.777Z,92.30
2018-05-19T05:57:50.165Z,92.20
2018-05-19T06:00:16.563Z,92.00
2018-05-19T06:02:42.973Z,92.10
2018-05-19T06:05:09.510Z,92.20
2018-05-19T06:07:35.932Z,92.10
2018-05-19T06:10:02.380Z,92.00
2018-05-19T06:12:28.772Z,92.00
2018-05-19T06:14:55.214Z,92.10
2018-05-19T06:17:22.345Z,91.60
2018-05-19T06:19:48.749Z,91.60
2018-05-19T06:22:15.149Z,91.40
2018-05-19T06:24:41.591Z,91.30
2018-05-19T06:27:08.034Z,91.40
2018-05-19T06:29:34.494Z,91.50
2018-05-19T06:32:00.950Z,91.60
2018-05-19T06:34:28.142Z,91.60
2018-05-19T06:36:54.551Z,91.60
2018-05-19T06:39:21.682Z,91.70
2018-05-19T06:41:48.076Z,91.70
2018-05-19T06:44:14.553Z,91.90
2018-05-19T06:46:41.724Z,91.60
2018-05-19T06:49:08.887Z,91.80
2018-05-19T06:51:35.363Z,91.80
2018-05-19T06:54:01.907Z,92.30
2018-05-19T06:56:29.051Z,91.90
2018-05-19T06:58:55.520Z,91.90
2018-05-19T07:01:21.970Z,91.80
2018-05-19T07:03:48.368Z,91.70
2018-05-19T07:06:15.527Z,91.80
2018-05-19T07:08:42.656Z,91.50
2018-05-19T07:11:10.675Z,91.50
2018-05-19T07:13:37.105Z,91.50
2018-05-19T07:16:05.293Z,91.30
2018-05-19T07:18:31.811Z,91.30
2018-05-19T07:20:58.332Z,91.30
2018-05-19T07:23:24.938Z,91.50
2018-05-19T07:25:52.148Z,91.40
2018-05-19T07:28:18.600Z,91.30
2018-05-19T07:30:45.048Z,91.20
2018-05-19T07:33:11.519Z,91.30
2018-05-19T07:35:38.748Z,90.60
2018-05-19T07:38:05.135Z,90.60
2018-05-19T07:40:31.585Z,91.00
2018-05-19T07:42:58.034Z,91.40
2018-05-19T07:45:25.260Z,91.40
2018-05-19T07:47:51.699Z,91.70
2018-05-19T07:50:18.172Z,90.90
2018-05-19T07:52:45.336Z,90.70
2018-05-19T07:55:12.645Z,90.60
2018-05-19T07:57:39.050Z,90.60
2018-05-19T08:00:05.491Z,90.90
2018-05-19T08:02:31.895Z,90.60
2018-05-19T08:04:59.037Z,91.30
2018-05-19T08:07:26.191Z,90.90
2018-05-19T08:09:53.595Z,90.90
2018-05-19T08:12:20.070Z,90.90
2018-05-19T08:14:46.442Z,90.40
2018-05-19T08:17:12.839Z,90.00
2018-05-19T08:19:39.248Z,89.60
2018-05-19T08:22:05.656Z,88.70
2018-05-19T08:24:32.091Z,88.60
2018-05-19T08:26:58.534Z,89.00
2018-05-19T08:29:25.000Z,89.60
2018-05-19T08:31:52.186Z,90.10
2018-05-19T08:34:18.592Z,90.10
2018-05-19T08:36:45.810Z,90.00
2018-05-19T08:39:12.252Z,90.00
2018-05-19T08:41:40.141Z,90.00
2018-05-19T08:44:07.337Z,89.60
2018-05-19T08:46:33.766Z,89.50
2018-05-19T08:49:00.167Z,90.20
2018-05-19T08:51:27.287Z,90.10
2018-05-19T08:53:53.706Z,90.00
2018-05-19T08:56:20.888Z,89.40
2018-05-19T08:58:48.153Z,89.90
2018-05-19T09:01:14.562Z,89.80
2018-05-19T09:03:40.955Z,89.50
2018-05-19T09:06:07.372Z,87.90
2018-05-19T09:08:33.823Z,88.80
2018-05-19T09:11:00.244Z,88.90
2018-05-19T09:13:26.672Z,88.50
2018-05-19T09:15:53.111Z,90.00
2018-05-19T09:18:20.860Z,88.90
2018-05-19T09:20:47.296Z,88.50
2018-05-19T09:23:14.495Z,86.80
2018-05-19T09:25:41.590Z,88.50
2018-05-19T09:28:08.742Z,88.30
2018-05-19T09:30:35.307Z,88.30
2018-05-19T09:33:01.763Z,87.30
2018-05-19T09:35:28.178Z,87.90
2018-05-19T09:37:55.501Z,87.80
2018-05-19T09:40:21.893Z,87.70
2018-05-19T09:42:49.868Z,87.10
2018-05-19T09:45:17.079Z,84.60
2018-05-19T09:47:43.615Z,84.50
2018-05-19T09:50:09.996Z,82.70
2018-05-19T09:52:36.407Z,82.40
2018-05-19T09:55:02.840Z,83.80
2018-05-19T09:57:29.287Z,84.20
2018-05-19T09:59:56.456Z,81.40
2018-05-19T10:02:23.640Z,79.70
2018-05-19T10:04:50.225Z,79.60
2018-05-19T10:07:16.672Z,80.00
2018-05-19T10:09:43.889Z,80.50
2018-05-19T10:12:10.319Z,80.30
2018-05-19T10:14:36.735Z,79.70
2018-05-19T10:17:03.234Z,80.30
2018-05-19T10:19:29.742Z,79.90
2018-05-19T10:21:57.060Z,79.60
2018-05-19T10:24:23.533Z,79.60
2018-05-19T10:26:50.990Z,78.50
2018-05-19T10:29:17.464Z,78.40
2018-05-19T10:31:44.679Z,76.90
2018-05-19T10:34:11.860Z,76.90
2018-05-19T10:36:38.462Z,76.40
2018-05-19T10:39:05.702Z,78.50
2018-05-19T10:41:33.639Z,78.50
2018-05-19T10:44:00.064Z,75.60
2018-05-19T10:46:26.499Z,76.00
2018-05-19T10:48:52.945Z,77.00
2018-05-19T10:51:19.336Z,77.30
2018-05-19T10:53:46.506Z,76.10
2018-05-19T10:56:13.663Z,77.00
2018-05-19T10:58:41.078Z,77.00
2018-05-19T11:01:07.478Z,73.60
2018-05-19T11:03:33.888Z,75.10
2018-05-19T11:06:00.297Z,75.20
2018-05-19T11:08:27.477Z,75.90
2018-05-19T11:10:53.927Z,75.90
2018-05-19T11:13:20.424Z,75.20
2018-05-19T11:15:46.843Z,76.30
2018-05-19T11:18:13.991Z,73.50
2018-05-19T11:20:41.155Z,74.30
2018-05-19T11:23:07.618Z,74.40
2018-05-19T11:25:35.346Z,76.50
2018-05-19T11:28:02.623Z,75.80
2018-05-19T11:30:29.032Z,76.20
2018-05-19T11:32:56.212Z,74.60
2018-05-19T11:35:22.634Z,74.50
2018-05-19T11:37:49.771Z,71.10
2018-05-19T11:40:16.224Z,73.80
2018-05-19T11:42:42.693Z,74.50
2018-05-19T11:45:09.135Z,76.20
2018-05-19T11:47:35.593Z,75.80
2018-05-19T11:50:02.832Z,71.80
2018-05-19T11:52:30.076Z,72.70
2018-05-19T11:54:56.544Z,72.70
2018-05-19T11:57:23.001Z,70.00
2018-05-19T11:59:49.476Z,72.00
2018-05-19T12:02:15.908Z,69.80
2018-05-19T12:04:42.377Z,68.10
2018-05-19T12:07:08.847Z,67.90
2018-05-19T12:09:35.901Z,69.70
2018-05-19T12:12:02.485Z,68.90
2018-05-19T12:14:28.868Z,71.40
2018-05-19T12:16:55.346Z,71.50
2018-05-19T12:19:21.788Z,70.60
2018-05-19T12:21:48.207Z,70.10
2018-05-19T12:24:15.503Z,70.30
2018-05-19T12:26:41.913Z,70.30
2018-05-19T12:29:09.095Z,72.60
2018-05-19T12:31:35.476Z,72.60
2018-05-19T12:34:07.983Z,72.50
2018-05-19T12:36:35.135Z,71.20
2018-05-19T12:39:01.716Z,71.20
2018-05-19T12:41:28.187Z,69.80
2018-05-19T12:43:54.699Z,69.60
2018-05-19T12:46:22.007Z,70.80
2018-05-19T12:48:48.514Z,70.70
2018-05-19T12:51:14.908Z,71.70
2018-05-19T12:53:41.346Z,75.20
2018-05-19T12:56:08.508Z,75.50
2018-05-19T12:58:34.930Z,75.60
2018-05-19T13:01:01.334Z,76.80
2018-05-19T13:03:28.579Z,77.00
2018-05-19T13:05:55.699Z,79.50
2018-05-19T13:08:22.855Z,78.10
2018-05-19T13:10:50.006Z,79.70
2018-05-19T13:13:17.147Z,79.00
2018-05-19T13:15:43.542Z,79.00
2018-05-19T13:18:09.944Z,78.90
2018-05-19T13:20:37.077Z,77.70
2018-05-19T13:23:04.222Z,78.80
2018-05-19T13:25:31.534Z,79.30
2018-05-19T13:27:57.892Z,79.30
2018-05-19T13:30:25.020Z,80.70
2018-05-19T13:32:51.414Z,80.70
2018-05-19T13:35:17.871Z,80.70
2018-05-19T13:37:44.284Z,81.00
2018-05-19T13:40:10.718Z,80.80
2018-05-19T13:42:37.118Z,81.00
2018-05-19T13:45:04.279Z,80.60
2018-05-19T13:47:30.956Z,80.50
2018-05-19T13:49:57.366Z,80.30
2018-05-19T13:52:23.837Z,79.60
2018-05-19T13:54:51.742Z,80.50
2018-05-19T13:57:18.858Z,80.20
2018-05-19T13:59:45.250Z,80.10
2018-05-19T14:02:11.647Z,80.60
2018-05-19T14:04:38.806Z,80.10
2018-05-19T14:07:05.960Z,81.20
2018-05-19T14:09:33.101Z,72.70
2018-05-19T14:12:00.245Z,71.00
2018-05-19T14:14:26.638Z,71.00
2018-05-19T14:16:53.086Z,70.70
2018-05-19T14:19:19.524Z,68.30
2018-05-19T14:21:45.915Z,71.80
2018-05-19T14:24:13.079Z,70.70
2018-05-19T14:26:39.551Z,70.70
2018-05-19T14:29:05.962Z,71.00
2018-05-19T14:31:32.377Z,71.30
2018-05-19T14:33:58.833Z,69.80
2018-05-19T14:36:25.243Z,69.90
2018-05-19T14:38:51.661Z,70.90
2018-05-19T14:41:18.053Z,71.70
2018-05-19T14:43:45.202Z,69.90
2018-05-19T14:46:13.067Z,70.80
2018-05-19T14:48:39.637Z,70.80
2018-05-19T14:51:06.046Z,68.10
2018-05-19T14:53:33.185Z,71.70
2018-05-19T14:55:59.626Z,71.70
2018-05-19T14:58:26.391Z,69.80
2018-05-19T15:00:53.523Z,70.80
2018-05-19T15:03:20.006Z,70.80
2018-05-19T15:05:46.398Z,68.90
2018-05-19T15:08:13.526Z,69.10
2018-05-19T15:10:39.942Z,68.70
2018-05-19T15:13:06.356Z,70.40
2018-05-19T15:15:32.776Z,71.00
2018-05-19T15:17:59.270Z,69.20
2018-05-19T15:20:25.621Z,71.40
2018-05-19T15:22:52.758Z,70.80
2018-05-19T15:25:19.911Z,71.90
2018-05-19T15:27:47.051Z,71.20
2018-05-19T15:30:13.444Z,71.20
2018-05-19T15:32:39.856Z,70.80
2018-05-19T15:35:06.259Z,70.80
2018-05-19T15:37:33.419Z,72.10
2018-05-19T15:40:00.545Z,69.50
2018-05-19T15:42:26.942Z,69.50
2018-05-19T15:44:53.339Z,68.90
2018-05-19T15:47:20.465Z,69.20
2018-05-19T15:49:46.859Z,69.20
2018-05-19T15:52:13.271Z,68.00
2018-05-19T15:54:39.659Z,68.90
2018-05-19T15:57:06.137Z,69.80
2018-05-19T15:59:32.535Z,68.40
2018-05-19T16:01:59.741Z,68.20
2018-05-19T16:04:26.214Z,68.20
2018-05-19T16:07:06.197Z,66.60
2018-05-19T16:09:45.690Z,66.30
2018-05-19T16:12:12.101Z,68.10
2018-05-19T16:14:38.552Z,69.10
2018-05-19T16:17:04.981Z,68.40
2018-05-19T16:19:31.381Z,68.70
2018-05-19T16:21:57.795Z,69.30
2018-05-19T16:24:24.266Z,68.60
2018-05-19T16:26:50.683Z,68.00
2018-05-19T16:29:18.309Z,70.40
2018-05-19T16:31:45.479Z,71.00
2018-05-19T16:34:11.879Z,71.00
2018-05-19T16:36:39.021Z,72.60
2018-05-19T16:39:05.450Z,73.20
2018-05-19T16:41:31.872Z,73.50
2018-05-19T16:43:58.273Z,75.90
2018-05-19T16:46:24.697Z,76.50
2018-05-19T16:48:51.439Z,76.70
2018-05-19T16:51:17.834Z,77.30
2018-05-19T16:53:44.286Z,77.30
2018-05-19T16:56:11.457Z,73.80
2018-05-19T16:58:39.220Z,72.30
2018-05-19T17:01:06.483Z,72.30
2018-05-19T17:03:32.904Z,73.70
2018-05-19T17:05:59.369Z,74.50
2018-05-19T17:08:25.893Z,75.60
2018-05-19T17:10:52.306Z,75.60
2018-05-19T17:13:19.759Z,75.60
2018-05-19T17:15:46.207Z,75.70
2018-05-19T17:18:12.756Z,76.10
2018-05-19T17:20:39.164Z,76.40
2018-05-19T17:23:05.610Z,76.70
2018-05-19T17:25:32.252Z,75.30
2018-05-19T17:27:58.772Z,75.50
2018-05-19T17:30:25.891Z,76.30
2018-05-19T17:32:52.299Z,76.30
2018-05-19T17:35:18.735Z,76.70
2018-05-19T17:37:45.540Z,76.80
2018-05-19T17:40:12.032Z,76.60
2018-05-19T17:42:39.166Z,76.60
2018-05-19T17:45:05.585Z,76.60
2018-05-19T17:47:32.020Z,77.00
2018-05-19T17:49:59.183Z,79.00
2018-05-19T17:52:25.640Z,79.00
2018-05-19T17:54:52.799Z,79.40
2018-05-19T17:57:19.938Z,79.00
2018-05-19T17:59:47.098Z,78.90
2018-05-19T18:02:14.282Z,78.90
2018-05-19T18:04:40.709Z,78.80
2018-05-19T18:07:07.150Z,79.00
2018-05-19T18:09:33.718Z,79.20
2018-05-19T18:12:00.213Z,79.60
2018-05-19T18:14:26.629Z,79.80
2018-05-19T18:16:53.100Z,79.80
2018-05-19T18:19:19.519Z,80.10
2018-05-19T18:21:45.944Z,80.10
2018-05-19T18:24:12.401Z,80.00
2018-05-19T18:26:38.878Z,80.00
2018-05-19T18:29:06.845Z,80.90
2018-05-19T18:31:33.990Z,80.30
2018-05-19T18:34:00.423Z,80.30
2018-05-19T18:36:27.588Z,81.30
2018-05-19T18:38:54.034Z,81.30
2018-05-19T18:41:20.441Z,82.80
2018-05-19T18:43:46.861Z,82.50
2018-05-19T18:46:14.033Z,82.60
2018-05-19T18:48:41.903Z,82.60
2018-05-19T18:51:09.041Z,82.50
2018-05-19T18:53:36.170Z,82.60
2018-05-19T18:56:02.586Z,82.40
2018-05-19T18:58:29.170Z,82.60
2018-05-19T19:00:57.271Z,82.70
2018-05-19T19:03:23.705Z,82.70
2018-05-19T19:05:50.169Z,82.80
2018-05-19T19:08:16.588Z,83.30
2018-05-19T19:10:43.875Z,83.90
2018-05-19T19:13:11.381Z,85.20
2018-05-19T19:15:38.962Z,86.00
2018-05-19T19:18:05.398Z,86.30
2018-05-19T19:20:31.893Z,87.00
2018-05-19T19:22:58.331Z,86.70
2018-05-19T19:25:24.726Z,87.10
2018-05-19T19:27:52.408Z,87.30
2018-05-19T19:30:19.590Z,88.00
2018-05-19T19:32:46.272Z,88.00
2018-05-19T19:35:12.724Z,87.60
2018-05-19T19:37:39.918Z,86.60
2018-05-19T19:40:06.326Z,86.60
2018-05-19T19:42:33.553Z,86.90
2018-05-19T19:44:59.920Z,86.90
2018-05-19T19:47:26.324Z,86.90
2018-05-19T19:49:53.478Z,86.40
2018-05-19T19:52:20.617Z,86.10
2018-05-19T19:54:47.704Z,86.10
2018-05-19T19:57:14.094Z,85.60
2018-05-19T19:59:40.666Z,85.80
2018-05-19T20:02:07.141Z,85.80
2018-05-19T20:04:33.572Z,85.70
2018-05-19T20:07:01.545Z,85.90
2018-05-19T20:09:27.977Z,85.80
2018-05-19T20:11:54.382Z,86.00
2018-05-19T20:14:20.801Z,86.70
2018-05-19T20:16:47.236Z,86.60
2018-05-19T20:19:13.695Z,86.70
2018-05-19T20:21:40.123Z,87.10
2018-05-19T20:24:07.310Z,87.20
2018-05-19T20:26:33.681Z,87.20
2018-05-19T20:29:00.965Z,87.20
2018-05-19T20:31:28.560Z,87.20
2018-05-19T20:33:55.725Z,87.80
2018-05-19T20:36:22.870Z,87.80
2018-05-19T20:38:50.015Z,88.20
2018-05-19T20:41:17.175Z,88.00
2018-05-19T20:43:43.585Z,87.90
2018-05-19T20:46:10.011Z,88.30
2018-05-19T20:48:36.403Z,88.50
2018-05-19T20:51:02.821Z,88.30
2018-05-19T20:53:29.228Z,87.90
2018-05-19T20:55:55.622Z,88.10
2018-05-19T20:58:22.069Z,88.10
2018-05-19T21:00:48.473Z,87.90
2018-05-19T21:03:14.875Z,88.20
2018-05-19T21:05:42.021Z,88.30
2018-05-19T21:08:09.177Z,88.00
2018-05-19T21:10:36.357Z,88.10
2018-05-19T21:13:02.871Z,88.10
2018-05-19T21:15:29.287Z,87.60
2018-05-19T21:17:56.447Z,87.50
2018-05-19T21:20:24.377Z,87.00
2018-05-19T21:22:50.782Z,87.00
2018-05-19T21:25:17.188Z,87.20
2018-05-19T21:27:44.412Z,87.40
2018-05-19T21:30:10.938Z,87.40
2018-05-19T21:32:37.368Z,87.50
2018-05-19T21:35:03.780Z,87.30
2018-05-19T21:37:30.235Z,87.60
2018-05-19T21:39:56.706Z,87.10
2018-05-19T21:42:23.203Z,88.00
2018-05-19T21:44:49.643Z,87.30
2018-05-19T21:47:16.055Z,87.90
2018-05-19T21:49:42.472Z,87.20
2018-05-19T21:52:08.893Z,87.50
2018-05-19T21:54:35.325Z,87.90
2018-05-19T21:57:01.814Z,88.00
2018-05-19T21:59:28.982Z,88.20
2018-05-19T22:01:56.143Z,88.00
2018-05-19T22:04:22.539Z,87.90
2018-05-19T22:06:48.932Z,87.90
2018-05-19T22:09:16.138Z,88.20
2018-05-19T22:11:43.319Z,88.20
2018-05-19T22:14:09.733Z,87.90
2018-05-19T22:16:36.165Z,87.60
2018-05-19T22:19:03.342Z,88.00
2018-05-19T22:21:30.392Z,88.00
2018-05-19T22:23:56.816Z,88.40
2018-05-19T22:26:23.243Z,88.50
2018-05-19T22:28:49.746Z,88.30
2018-05-19T22:31:17.004Z,88.60
2018-05-19T22:33:44.174Z,88.90
2018-05-19T22:36:10.632Z,89.00
2018-05-19T22:38:37.057Z,89.00
2018-05-19T22:41:03.496Z,88.90
2018-05-19T22:43:29.909Z,89.00
2018-05-19T22:45:57.051Z,88.90
2018-05-19T22:48:24.260Z,89.20
2018-05-19T22:50:51.503Z,89.40
2018-05-19T22:53:17.928Z,89.30
2018-05-19T22:55:44.342Z,89.30
2018-05-19T22:58:11.763Z,89.10
2018-05-19T23:00:38.163Z,89.10
2018-05-19T23:03:04.592Z,89.20
2018-05-19T23:05:31.016Z,89.00
2018-05-19T23:07:57.427Z,89.10
2018-05-19T23:10:23.839Z,89.00
2018-05-19T23:12:50.984Z,88.90
2018-05-19T23:15:18.140Z,89.00
2018-05-19T23:17:44.634Z,89.00
2018-05-19T23:20:11.056Z,89.10
2018-05-19T23:22:43.216Z,89.00
2018-05-19T23:25:09.646Z,88.90
2018-05-19T23:27:36.066Z,89.10
2018-05-19T23:30:02.519Z,89.10
2018-05-19T23:32:28.980Z,89.30
2018-05-19T23:34:55.567Z,89.00
2018-05-19T23:37:22.001Z,88.50
2018-05-19T23:39:48.408Z,89.00
2018-05-19T23:42:14.820Z,89.00
2018-05-19T23:44:42.461Z,89.00
2018-05-19T23:47:08.885Z,88.90
2018-05-19T23:49:35.341Z,89.10
2018-05-19T23:52:03.266Z,89.30
2018-05-19T23:54:30.621Z,89.20
2018-05-19T23:56:57.024Z,89.10
2018-05-19T23:59:24.882Z,89.30
